Time;durP1;ratioP1;P1;durP2;ratioP2;P2;SDS_P1;SDS_P2;PMS_P1;PMS_P2;Temp;Humidity;BMP_temperature;BMP_pressure;BME280_temperature;BME280_humidity;BME280_pressure;Samples;Min_cycle;Max_cycle;Signal;HPM_P1;HPM_P2
2022/03/15 00:00:52;;;;;;;52.15;28.25;;;4.00;94.30;;;;;;5033545;28;20125;-73
2022/03/15 00:03:21;;;;;;;44.78;26.13;;;3.70;95.00;;;;;;5031600;28;20049;-75
2022/03/15 00:05:49;;;;;;;39.75;24.13;;;3.60;96.20;;;;;;5024524;28;20037;-80
2022/03/15 00:08:17;;;;;;;40.95;24.80;;;3.50;96.30;;;;;;5033902;28;20481;-80
2022/03/15 00:10:45;;;;;;;44.55;26.58;;;3.60;95.90;;;;;;5033909;28;20056;-68
2022/03/15 00:13:13;;;;;;;47.38;28.17;;;3.40;96.00;;;;;;5034331;28;20100;-72
2022/03/15 00:15:41;;;;;;;43.88;25.90;;;3.10;98.20;;;;;;5033088;28;20413;-75
2022/03/15 00:18:08;;;;;;;49.85;27.58;;;3.20;97.30;;;;;;5033226;28;20084;-76
2022/03/15 00:20:36;;;;;;;46.00;26.90;;;3.00;97.10;;;;;;5033188;28;20551;-71
2022/03/15 00:23:04;;;;;;;52.22;27.02;;;3.10;97.00;;;;;;5033264;28;20044;-79
2022/03/15 00:25:31;;;;;;;40.03;24.45;;;3.10;96.70;;;;;;5015347;28;20513;-71
2022/03/15 00:27:59;;;;;;;46.70;25.02;;;3.00;96.00;;;;;;5033945;28;20346;-74
2022/03/15 00:30:26;;;;;;;40.15;23.58;;;3.00;96.20;;;;;;5033711;28;20140;-82
2022/03/15 00:32:54;;;;;;;37.17;23.10;;;2.90;96.40;;;;;;5034030;28;20583;-77
2022/03/15 00:35:25;;;;;;;38.85;24.45;;;2.90;96.40;;;;;;5034398;28;20041;-85
2022/03/15 00:37:54;;;;;;;40.58;23.65;;;3.10;96.20;;;;;;5033869;28;20112;-77
2022/03/15 00:40:23;;;;;;;34.85;22.60;;;3.10;95.80;;;;;;5033446;28;20068;-73
2022/03/15 00:42:52;;;;;;;36.30;22.58;;;3.10;95.50;;;;;;5034024;28;20041;-72
2022/03/15 00:45:27;;;;;;;40.45;23.23;;;3.10;95.40;;;;;;5031999;28;20473;-74
2022/03/15 00:47:57;;;;;;;35.58;21.83;;;3.10;95.40;;;;;;5033475;28;20069;-78
2022/03/15 00:50:27;;;;;;;42.65;23.05;;;3.20;94.90;;;;;;5033304;28;20046;-73
2022/03/15 00:52:56;;;;;;;34.92;22.35;;;3.10;94.80;;;;;;5033420;28;20052;-79
2022/03/15 00:55:23;;;;;;;39.33;21.02;;;3.20;94.90;;;;;;5033268;28;20071;-75
2022/03/15 00:57:50;;;;;;;33.88;19.58;;;3.20;94.50;;;;;;5033999;28;20037;-82
2022/03/15 01:00:20;;;;;;;41.83;20.52;;;3.10;94.40;;;;;;5033241;28;20038;-75
2022/03/15 01:02:48;;;;;;;36.53;20.53;;;3.10;93.90;;;;;;5033703;28;20049;-74
2022/03/15 01:05:16;;;;;;;35.13;19.35;;;2.60;95.00;;;;;;5015498;28;20645;-80
2022/03/15 01:07:43;;;;;;;29.08;17.75;;;2.80;95.30;;;;;;5033291;28;20041;-78
2022/03/15 01:10:10;;;;;;;31.42;19.13;;;2.60;95.30;;;;;;5033504;28;20401;-74
2022/03/15 01:12:38;;;;;;;31.98;19.40;;;2.70;95.80;;;;;;5015643;28;20373;-79
2022/03/15 01:15:07;;;;;;;32.47;18.85;;;2.40;95.70;;;;;;5032508;28;20378;-80
2022/03/15 01:17:35;;;;;;;31.02;19.23;;;2.50;96.20;;;;;;5032539;28;20045;-74
2022/03/15 01:20:07;;;;;;;31.70;19.30;;;2.70;95.90;;;;;;5032325;28;20091;-80
2022/03/15 01:22:35;;;;;;;30.55;19.17;;;2.90;95.30;;;;;;5032725;28;20052;-73
2022/03/15 01:25:02;;;;;;;36.33;18.33;;;2.40;96.70;;;;;;5032316;28;20404;-75
2022/03/15 01:27:29;;;;;;;36.88;20.48;;;2.70;96.40;;;;;;5032846;28;20041;-75
2022/03/15 01:29:57;;;;;;;30.60;19.15;;;2.80;96.00;;;;;;5032646;28;20042;-71
2022/03/15 01:32:26;;;;;;;33.53;19.50;;;2.90;95.80;;;;;;5032463;28;20068;-75
2022/03/15 01:34:53;;;;;;;30.02;19.00;;;2.90;95.40;;;;;;5032498;28;20454;-75
2022/03/15 01:37:20;;;;;;;35.35;18.88;;;2.70;95.90;;;;;;5033019;28;20049;-74
2022/03/15 01:39:47;;;;;;;32.67;20.05;;;2.90;96.00;;;;;;5033608;28;20042;-71
2022/03/15 01:42:16;;;;;;;31.10;20.10;;;3.10;95.30;;;;;;5033662;28;20045;-84
2022/03/15 01:44:48;;;;;;;33.63;19.85;;;3.10;95.10;;;;;;5033857;28;20045;-77
2022/03/15 01:47:16;;;;;;;32.55;20.08;;;3.20;95.00;;;;;;5033217;28;20041;-73
2022/03/15 01:49:43;;;;;;;34.70;20.15;;;3.10;95.10;;;;;;5033138;28;20077;-78
2022/03/15 01:52:13;;;;;;;38.13;20.00;;;2.90;95.40;;;;;;5032919;28;20763;-79
2022/03/15 01:54:41;;;;;;;37.07;20.10;;;2.90;96.30;;;;;;5032723;28;20386;-73
2022/03/15 01:57:09;;;;;;;29.95;20.38;;;3.00;96.20;;;;;;5032547;28;20052;-75
2022/03/15 01:59:37;;;;;;;31.75;20.17;;;2.80;96.50;;;;;;5032233;28;20045;-71
2022/03/15 02:02:05;;;;;;;31.13;18.90;;;2.50;97.60;;;;;;5032356;28;20037;-82
2022/03/15 02:04:32;;;;;;;32.70;19.30;;;2.50;99.10;;;;;;5032488;28;20446;-71
2022/03/15 02:07:02;;;;;;;34.50;19.40;;;2.60;99.70;;;;;;5032504;28;20052;-76
2022/03/15 02:09:30;;;;;;;33.60;19.53;;;2.50;99.90;;;;;;5032562;28;20049;-79
2022/03/15 02:11:58;;;;;;;32.60;19.35;;;2.30;99.90;;;;;;5032703;28;20046;-79
2022/03/15 02:14:26;;;;;;;35.25;19.00;;;2.50;99.90;;;;;;5031987;28;20071;-76
2022/03/15 02:16:53;;;;;;;35.97;20.88;;;2.60;99.90;;;;;;5032508;28;20386;-83
2022/03/15 02:19:22;;;;;;;35.85;21.10;;;2.40;99.90;;;;;;5032312;28;20057;-77
2022/03/15 02:21:50;;;;;;;34.72;20.92;;;2.10;99.90;;;;;;5032194;28;20120;-82
2022/03/15 02:24:18;;;;;;;40.83;22.52;;;2.20;99.90;;;;;;5032512;28;20045;-80
2022/03/15 02:26:45;;;;;;;41.33;24.38;;;2.30;99.90;;;;;;5032189;28;20060;-81
2022/03/15 02:29:13;;;;;;;42.65;24.90;;;2.20;99.90;;;;;;5032473;28;20122;-83
2022/03/15 02:31:41;;;;;;;44.30;24.80;;;2.00;99.90;;;;;;5032295;28;20045;-72
2022/03/15 02:34:08;;;;;;;35.30;23.33;;;1.90;99.90;;;;;;5032867;28;20049;-87
2022/03/15 02:36:36;;;;;;;40.10;23.77;;;1.90;99.90;;;;;;5032965;28;20042;-85
2022/03/15 02:39:03;;;;;;;37.92;23.50;;;2.30;99.90;;;;;;5033181;28;20121;-80
2022/03/15 02:41:30;;;;;;;35.50;22.73;;;2.30;99.90;;;;;;5014685;28;20049;-73
2022/03/15 02:43:57;;;;;;;37.83;23.80;;;1.80;99.90;;;;;;5031636;28;20053;-80
2022/03/15 02:46:33;;;;;;;41.08;24.60;;;2.10;99.90;;;;;;5032411;28;20511;-73
2022/03/15 02:49:00;;;;;;;43.95;23.70;;;2.30;99.90;;;;;;5033021;28;20389;-83
2022/03/15 02:51:28;;;;;;;42.15;23.80;;;2.40;99.90;;;;;;5032996;28;20041;-75
2022/03/15 02:53:56;;;;;;;46.55;22.40;;;2.50;99.90;;;;;;5034649;28;20049;-79
2022/03/15 02:56:24;;;;;;;39.47;22.88;;;2.30;99.90;;;;;;5033201;28;20042;-85
2022/03/15 02:58:51;;;;;;;33.80;21.92;;;2.20;99.90;;;;;;5015358;28;20140;-81
2022/03/15 03:01:19;;;;;;;36.58;22.20;;;1.90;99.90;;;;;;5015615;28;20041;-78
2022/03/15 03:03:47;;;;;;;32.00;20.48;;;2.00;99.90;;;;;;5015160;28;20116;-81
2022/03/15 03:06:15;;;;;;;38.55;21.08;;;2.00;99.90;;;;;;5032470;28;20112;-75
2022/03/15 03:08:44;;;;;;;35.58;20.58;;;2.00;99.90;;;;;;5036875;28;20049;-78
2022/03/15 03:11:11;;;;;;;38.53;20.60;;;1.90;99.90;;;;;;5036560;28;20393;-74
2022/03/15 03:13:42;;;;;;;34.88;20.55;;;2.00;99.90;;;;;;5036740;28;20423;-84
2022/03/15 03:16:12;;;;;;;31.92;19.92;;;2.20;99.90;;;;;;5036289;28;20041;-81
2022/03/15 03:18:40;;;;;;;32.55;20.33;;;2.20;99.90;;;;;;5018243;28;20057;-80
2022/03/15 03:21:07;;;;;;;28.50;18.98;;;2.10;99.90;;;;;;5035309;28;20439;-72
2022/03/15 03:23:35;;;;;;;31.95;18.67;;;2.00;99.90;;;;;;5035802;28;20642;-81
2022/03/15 03:26:04;;;;;;;36.47;19.13;;;1.80;99.90;;;;;;5036153;28;20041;-83
2022/03/15 03:28:38;;;;;;;34.63;19.10;;;1.70;99.90;;;;;;5035608;28;20580;-76
2022/03/15 03:31:08;;;;;;;33.15;18.45;;;1.70;99.90;;;;;;5036365;28;20397;-77
2022/03/15 03:33:37;;;;;;;32.25;18.52;;;1.80;99.90;;;;;;5035531;28;20051;-80
2022/03/15 03:36:05;;;;;;;35.40;19.23;;;1.80;99.90;;;;;;5017686;28;20119;-79
2022/03/15 03:38:33;;;;;;;33.35;18.50;;;2.00;99.90;;;;;;5035404;28;20425;-85
2022/03/15 03:41:00;;;;;;;31.25;18.92;;;2.20;99.90;;;;;;5035563;28;20052;-78
2022/03/15 03:43:28;;;;;;;31.20;19.63;;;2.10;99.90;;;;;;5035689;28;20041;-83
2022/03/15 03:45:57;;;;;;;31.88;18.20;;;2.20;99.90;;;;;;5035516;28;20046;-78
2022/03/15 03:48:25;;;;;;;33.08;20.35;;;2.00;99.90;;;;;;5035281;28;20045;-76
2022/03/15 03:50:53;;;;;;;33.47;19.52;;;2.00;99.90;;;;;;5035098;28;20052;-77
2022/03/15 03:53:22;;;;;;;29.45;18.55;;;2.00;99.90;;;;;;5035723;28;20049;-79
2022/03/15 03:55:50;;;;;;;33.05;19.05;;;2.10;99.90;;;;;;5035734;28;20041;-82
2022/03/15 03:58:17;;;;;;;31.58;19.58;;;1.80;99.90;;;;;;5035605;28;20041;-76
2022/03/15 04:00:44;;;;;;;33.40;19.65;;;1.80;99.90;;;;;;5035151;28;20417;-79
2022/03/15 04:03:16;;;;;;;33.75;20.55;;;1.40;99.90;;;;;;5035915;28;20440;-82
2022/03/15 04:05:46;;;;;;;33.83;18.73;;;1.60;99.90;;;;;;5035970;28;20072;-87
2022/03/15 04:08:14;;;;;;;28.85;19.35;;;1.80;99.90;;;;;;5036675;28;20061;-77
2022/03/15 04:10:46;;;;;;;31.30;18.40;;;2.00;99.90;;;;;;5036665;28;20080;-86
2022/03/15 04:13:18;;;;;;;32.03;19.02;;;1.80;99.90;;;;;;5018048;28;20450;-86
2022/03/15 04:15:46;;;;;;;32.53;19.70;;;1.60;99.90;;;;;;5017652;28;20045;-82
2022/03/15 04:18:14;;;;;;;30.73;18.00;;;0.90;99.90;;;;;;5026506;28;20092;-79
2022/03/15 04:20:42;;;;;;;27.73;16.75;;;1.20;99.90;;;;;;5035666;28;20045;-76
2022/03/15 04:23:10;;;;;;;28.88;17.70;;;1.10;99.90;;;;;;5035471;28;20568;-84
2022/03/15 04:25:39;;;;;;;29.00;17.27;;;1.30;99.90;;;;;;5017875;28;20429;-84
2022/03/15 04:28:07;;;;;;;24.83;17.23;;;1.40;99.90;;;;;;5036274;28;20049;-74
2022/03/15 04:30:35;;;;;;;25.92;16.30;;;1.20;99.90;;;;;;5036037;28;20045;-83
2022/03/15 04:33:02;;;;;;;29.50;18.45;;;1.50;99.90;;;;;;5035849;28;20409;-78
2022/03/15 04:35:30;;;;;;;28.48;17.98;;;1.50;99.90;;;;;;5035252;28;20044;-82
2022/03/15 04:37:58;;;;;;;33.50;17.25;;;1.40;99.90;;;;;;5035253;28;20411;-81
2022/03/15 04:40:26;;;;;;;29.95;17.25;;;1.20;99.90;;;;;;5017185;28;20508;-77
2022/03/15 04:42:54;;;;;;;40.58;17.98;;;1.40;99.90;;;;;;5035619;28;20037;-83
2022/03/15 04:45:22;;;;;;;23.00;15.55;;;1.40;99.90;;;;;;5035745;28;20076;-81
2022/03/15 04:47:50;;;;;;;25.83;13.95;;;1.30;99.90;;;;;;5036896;28;20053;-79
2022/03/15 04:50:17;;;;;;;21.83;13.77;;;1.40;99.90;;;;;;5017601;28;20052;-82
2022/03/15 04:52:45;;;;;;;19.63;13.10;;;1.40;99.90;;;;;;5034091;28;20454;-80
2022/03/15 04:55:12;;;;;;;21.75;13.75;;;1.40;99.90;;;;;;5034039;28;20071;-88
2022/03/15 04:57:40;;;;;;;20.83;14.23;;;1.40;99.90;;;;;;5035877;28;20041;-87
2022/03/15 05:00:09;;;;;;;20.35;12.27;;;1.40;99.90;;;;;;5035791;28;20053;-73
2022/03/15 05:02:40;;;;;;;23.20;13.20;;;1.30;99.90;;;;;;5037583;28;20037;-78
2022/03/15 05:05:08;;;;;;;21.30;13.25;;;1.10;99.90;;;;;;5036221;28;20053;-74
2022/03/15 05:07:35;;;;;;;19.77;12.52;;;0.90;99.90;;;;;;5034949;28;20105;-84
2022/03/15 05:12:48;;;;;;;15.43;11.05;;;1.10;99.90;;;;;;5034958;28;20041;-81
2022/03/15 05:15:16;;;;;;;19.65;12.00;;;1.30;99.90;;;;;;5017481;28;20065;-84
2022/03/15 05:17:43;;;;;;;19.20;11.90;;;1.40;99.90;;;;;;5034718;28;20397;-82
2022/03/15 05:20:11;;;;;;;17.48;13.00;;;1.40;99.90;;;;;;5018215;28;20048;-85
2022/03/15 05:22:38;;;;;;;20.17;12.80;;;1.20;99.90;;;;;;5035814;28;20029;-85
2022/03/15 05:25:06;;;;;;;20.50;12.43;;;1.40;99.90;;;;;;5015826;28;20651;-79
2022/03/15 05:27:34;;;;;;;19.90;12.85;;;1.00;99.90;;;;;;5033439;28;20038;-77
2022/03/15 05:30:02;;;;;;;20.67;13.68;;;1.00;99.90;;;;;;5032331;28;20068;-81
2022/03/15 05:32:30;;;;;;;20.10;13.10;;;0.80;99.90;;;;;;5034142;28;20052;-75
2022/03/15 05:34:57;;;;;;;20.23;12.70;;;0.70;99.90;;;;;;5033610;28;20064;-83
2022/03/15 05:37:25;;;;;;;20.33;13.68;;;1.00;99.90;;;;;;5033553;28;20041;-77
2022/03/15 05:39:52;;;;;;;22.55;14.07;;;1.30;99.90;;;;;;5033454;28;20097;-82
2022/03/15 05:42:19;;;;;;;21.67;13.52;;;1.30;99.90;;;;;;5016687;28;20504;-76
2022/03/15 05:44:47;;;;;;;20.42;12.82;;;1.40;99.90;;;;;;5034235;28;20071;-80
2022/03/15 05:47:15;;;;;;;19.90;12.88;;;1.50;99.90;;;;;;5033835;28;20048;-78
2022/03/15 05:49:42;;;;;;;21.77;13.00;;;1.60;99.90;;;;;;5032877;28;20045;-80
2022/03/15 05:52:10;;;;;;;21.10;13.88;;;1.50;99.90;;;;;;5032871;28;20055;-82
2022/03/15 05:54:37;;;;;;;18.20;12.52;;;1.40;99.90;;;;;;5033621;28;20436;-78
2022/03/15 05:57:04;;;;;;;20.20;13.43;;;1.40;99.90;;;;;;5036880;28;20041;-80
2022/03/15 05:59:32;;;;;;;19.75;12.98;;;1.60;99.90;;;;;;5017352;28;20080;-78
2022/03/15 06:01:59;;;;;;;23.90;14.52;;;1.70;99.90;;;;;;5033206;28;20038;-73
2022/03/15 06:04:27;;;;;;;23.30;14.27;;;1.80;99.90;;;;;;5032469;28;20115;-80
2022/03/15 06:06:55;;;;;;;25.75;15.18;;;1.70;99.90;;;;;;5032061;28;20606;-72
2022/03/15 06:09:25;;;;;;;25.55;16.05;;;1.80;99.90;;;;;;5032186;28;20041;-73
2022/03/15 06:11:54;;;;;;;;;;;2.10;99.90;;;;;;5032722;28;20064;-71
2022/03/15 06:14:22;;;;;;;34.10;15.95;;;2.20;99.90;;;;;;5031542;28;19927;-81
2022/03/15 06:16:50;;;;;;;30.77;17.17;;;1.60;99.90;;;;;;5032294;28;20449;-73
2022/03/15 06:19:17;;;;;;;40.00;22.67;;;1.80;99.90;;;;;;5031877;28;20049;-74
2022/03/15 06:21:45;;;;;;;183.88;86.60;;;1.80;99.90;;;;;;5031154;28;20069;-72
2022/03/15 06:24:12;;;;;;;85.32;43.17;;;2.30;99.90;;;;;;5031706;28;20501;-77
2022/03/15 06:26:41;;;;;;;32.60;21.25;;;2.20;99.90;;;;;;5031045;28;20045;-78
2022/03/15 06:29:08;;;;;;;31.52;17.63;;;2.20;99.90;;;;;;5031512;28;20075;-76
2022/03/15 06:31:35;;;;;;;32.35;19.25;;;2.10;99.90;;;;;;5013902;28;20033;-73
2022/03/15 06:34:06;;;;;;;26.40;17.23;;;1.90;99.90;;;;;;5031531;28;20042;-71
2022/03/15 06:36:34;;;;;;;33.35;19.55;;;2.10;99.90;;;;;;5013745;28;20049;-73
2022/03/15 06:39:03;;;;;;;35.08;17.58;;;2.30;99.90;;;;;;5020639;28;20034;-75
2022/03/15 06:41:31;;;;;;;27.05;16.98;;;2.20;99.90;;;;;;5003473;28;20409;-74
2022/03/15 06:43:58;;;;;;;33.13;17.05;;;2.40;99.90;;;;;;5021076;28;20117;-73
2022/03/15 06:46:26;;;;;;;28.85;17.73;;;2.40;99.90;;;;;;5021656;28;20060;-73
2022/03/15 06:48:54;;;;;;;24.60;17.13;;;2.30;99.90;;;;;;5023111;28;20042;-76
2022/03/15 06:51:21;;;;;;;28.45;17.50;;;2.30;99.90;;;;;;5019904;28;20044;-75
2022/03/15 06:53:48;;;;;;;30.15;18.48;;;2.40;99.90;;;;;;5021430;28;20374;-73
2022/03/15 06:56:16;;;;;;;29.55;19.58;;;2.50;99.90;;;;;;5018959;28;20075;-73
2022/03/15 06:58:45;;;;;;;29.10;18.52;;;2.60;99.90;;;;;;5020128;28;20497;-73
2022/03/15 07:01:13;;;;;;;23.75;17.40;;;2.40;99.90;;;;;;5015612;28;20065;-77
2022/03/15 07:03:40;;;;;;;28.10;18.17;;;2.50;99.90;;;;;;5011217;28;20064;-74
2022/03/15 07:06:08;;;;;;;35.60;20.35;;;2.60;99.90;;;;;;5011068;28;20049;-72
2022/03/15 07:08:35;;;;;;;30.77;18.65;;;2.70;99.90;;;;;;5011789;28;20045;-73
2022/03/15 07:11:02;;;;;;;42.53;25.35;;;2.70;99.90;;;;;;4993706;28;20125;-76
2022/03/15 07:13:30;;;;;;;125.75;65.43;;;3.30;99.90;;;;;;5011588;28;20058;-75
2022/03/15 07:15:58;;;;;;;40.13;23.50;;;3.80;99.90;;;;;;5017804;28;20042;-71
2022/03/15 07:18:25;;;;;;;33.67;18.77;;;3.40;99.90;;;;;;5023116;28;20402;-79
2022/03/15 07:20:52;;;;;;;31.15;19.98;;;3.50;99.40;;;;;;5011023;28;20077;-79
2022/03/15 07:23:19;;;;;;;28.27;19.17;;;3.40;97.90;;;;;;4993963;28;20567;-80
2022/03/15 07:25:47;;;;;;;33.50;20.67;;;3.30;98.70;;;;;;5011714;28;20048;-73
2022/03/15 07:28:14;;;;;;;30.58;19.13;;;3.30;98.80;;;;;;4978007;28;20551;-73
2022/03/15 07:30:41;;;;;;;25.95;18.98;;;3.10;98.70;;;;;;5011317;28;20034;-76
2022/03/15 07:33:08;;;;;;;26.27;18.20;;;3.20;98.10;;;;;;5011478;28;20060;-79
2022/03/15 07:35:37;;;;;;;31.38;19.08;;;3.30;98.10;;;;;;5011233;28;20093;-74
2022/03/15 07:38:04;;;;;;;33.40;20.30;;;3.50;97.80;;;;;;5011181;28;20054;-70
2022/03/15 07:40:32;;;;;;;31.17;18.98;;;3.60;98.00;;;;;;5010808;28;20049;-70
2022/03/15 07:42:59;;;;;;;26.88;18.15;;;3.80;97.30;;;;;;5011471;28;20460;-76
2022/03/15 07:45:26;;;;;;;28.92;18.23;;;3.90;97.50;;;;;;5006281;28;20066;-72
2022/03/15 07:47:54;;;;;;;32.20;19.15;;;3.90;96.90;;;;;;4991274;28;20042;-72
2022/03/15 07:50:21;;;;;;;28.05;18.48;;;3.90;96.70;;;;;;4991383;28;20046;-72
2022/03/15 07:52:50;;;;;;;30.58;18.65;;;4.10;97.10;;;;;;4991485;28;20057;-72
2022/03/15 07:55:17;;;;;;;28.40;18.60;;;4.10;97.30;;;;;;4995186;28;20034;-70
2022/03/15 07:57:45;;;;;;;28.10;18.67;;;4.30;97.60;;;;;;4995212;28;20046;-74
2022/03/15 08:00:13;;;;;;;26.92;19.45;;;4.50;96.50;;;;;;4995109;28;20042;-73
2022/03/15 08:02:41;;;;;;;29.73;19.15;;;4.30;96.00;;;;;;4977506;28;20054;-75
2022/03/15 08:05:09;;;;;;;26.52;18.35;;;4.30;96.20;;;;;;4977197;28;20627;-72
2022/03/15 08:07:36;;;;;;;35.88;18.92;;;4.60;96.30;;;;;;4994928;28;20046;-72
2022/03/15 08:10:08;;;;;;;36.42;18.80;;;4.60;94.30;;;;;;4994973;28;20038;-72
2022/03/15 08:12:36;;;;;;;30.27;18.70;;;4.60;94.50;;;;;;4995293;28;20061;-72
2022/03/15 08:15:05;;;;;;;24.90;17.83;;;4.80;94.60;;;;;;4994652;28;20038;-74
2022/03/15 08:17:34;;;;;;;26.10;17.60;;;5.10;94.00;;;;;;4994779;28;20054;-72
2022/03/15 08:20:02;;;;;;;28.85;17.75;;;5.10;94.10;;;;;;5014427;28;20092;-70
2022/03/15 08:22:30;;;;;;;29.90;17.80;;;5.20;94.50;;;;;;5014304;28;20096;-74
2022/03/15 08:24:59;;;;;;;28.98;18.65;;;5.40;94.10;;;;;;4997133;28;20434;-75
2022/03/15 08:27:27;;;;;;;27.52;17.25;;;5.50;93.30;;;;;;4996933;28;20481;-72
2022/03/15 08:29:54;;;;;;;28.13;18.73;;;5.60;93.30;;;;;;5014430;28;20041;-74
2022/03/15 08:32:21;;;;;;;27.67;16.65;;;5.70;91.70;;;;;;5033761;28;20124;-74
2022/03/15 08:34:48;;;;;;;41.92;21.00;;;5.60;90.70;;;;;;5033706;28;20060;-72
2022/03/15 08:37:16;;;;;;;50.13;30.70;;;6.40;93.50;;;;;;5033505;28;20038;-71
2022/03/15 08:39:43;;;;;;;42.30;23.33;;;7.20;91.80;;;;;;5015187;28;20056;-71
2022/03/15 08:42:11;;;;;;;24.98;16.98;;;7.10;84.80;;;;;;5043365;28;20405;-73
2022/03/15 08:44:38;;;;;;;25.63;16.10;;;6.80;81.00;;;;;;5041748;28;20034;-70
2022/03/15 08:47:05;;;;;;;23.55;15.90;;;6.60;81.30;;;;;;5007870;28;20080;-70
2022/03/15 08:49:33;;;;;;;25.33;15.18;;;6.90;82.00;;;;;;5024355;28;20040;-73
2022/03/15 08:52:01;;;;;;;23.60;15.40;;;6.90;78.90;;;;;;5022995;28;20413;-71
2022/03/15 08:54:28;;;;;;;22.05;14.52;;;7.00;77.50;;;;;;5020806;28;20088;-72
2022/03/15 08:56:56;;;;;;;22.38;14.65;;;7.00;76.40;;;;;;5016322;28;20132;-73
2022/03/15 08:59:25;;;;;;;23.73;14.73;;;7.20;76.70;;;;;;5022533;28;20033;-71
2022/03/15 09:01:53;;;;;;;22.75;15.43;;;7.40;74.70;;;;;;5022555;28;20087;-76
2022/03/15 09:04:21;;;;;;;25.23;17.10;;;7.60;75.50;;;;;;5022218;28;20509;-70
2022/03/15 09:06:48;;;;;;;24.17;15.07;;;7.60;74.20;;;;;;5026937;28;20441;-72
2022/03/15 09:09:20;;;;;;;22.65;14.85;;;7.50;73.70;;;;;;5032706;28;20041;-74
2022/03/15 09:11:47;;;;;;;22.30;15.13;;;7.80;72.60;;;;;;5033054;28;20396;-73
2022/03/15 09:14:15;;;;;;;21.90;14.60;;;8.00;72.70;;;;;;5029257;28;20041;-71
2022/03/15 09:16:43;;;;;;;21.33;13.48;;;8.20;71.90;;;;;;5031999;28;20045;-73
2022/03/15 09:19:11;;;;;;;24.70;15.75;;;8.30;70.70;;;;;;5032417;28;20050;-71
2022/03/15 09:21:38;;;;;;;23.83;15.57;;;8.40;70.00;;;;;;5032368;28;20077;-72
2022/03/15 09:24:06;;;;;;;25.02;15.35;;;8.40;70.20;;;;;;5032558;28;20204;-73
2022/03/15 09:26:34;;;;;;;22.67;14.30;;;8.40;68.60;;;;;;5032677;28;20045;-72
2022/03/15 09:29:01;;;;;;;23.42;15.13;;;8.70;67.10;;;;;;5031632;28;20042;-72
2022/03/15 09:31:30;;;;;;;23.70;14.60;;;8.70;66.80;;;;;;5014853;28;20118;-72
2022/03/15 09:33:58;;;;;;;21.70;14.55;;;9.10;67.50;;;;;;5032556;28;20043;-73
2022/03/15 09:36:25;;;;;;;27.88;17.05;;;9.20;65.60;;;;;;5032325;28;20086;-71
2022/03/15 09:38:54;;;;;;;23.55;15.48;;;9.30;64.90;;;;;;5032316;28;20141;-74
2022/03/15 09:41:25;;;;;;;23.05;15.07;;;8.90;64.90;;;;;;5032165;28;20045;-72
2022/03/15 09:43:54;;;;;;;20.02;14.38;;;8.90;64.80;;;;;;5031738;28;20122;-73
2022/03/15 09:46:22;;;;;;;22.27;14.05;;;9.20;63.50;;;;;;5026676;28;20041;-72
2022/03/15 09:49:10;;;;;;;20.30;14.43;;;9.30;63.40;;;;;;5032046;28;20405;-73
2022/03/15 09:51:38;;;;;;;21.55;13.90;;;9.70;61.80;;;;;;5022827;28;20469;-71
2022/03/15 09:54:07;;;;;;;19.63;14.30;;;9.70;61.30;;;;;;5021950;28;20042;-71
2022/03/15 09:56:39;;;;;;;24.30;15.00;;;10.10;61.60;;;;;;5022334;28;20033;-73
2022/03/15 09:59:14;;;;;;;20.70;14.68;;;10.40;60.90;;;;;;5022671;28;20124;-71
2022/03/15 10:01:43;;;;;;;21.55;14.32;;;10.60;59.20;;;;;;5013442;28;20578;-73
2022/03/15 10:04:11;;;;;;;25.92;14.70;;;10.70;59.60;;;;;;5024484;28;20088;-71
2022/03/15 10:06:39;;;;;;;23.15;14.55;;;10.70;59.90;;;;;;5031932;28;20047;-71
2022/03/15 10:09:07;;;;;;;19.50;13.82;;;10.80;59.70;;;;;;5028444;28;20030;-72
2022/03/15 10:11:37;;;;;;;22.67;13.82;;;10.70;58.80;;;;;;5011977;28;20042;-71
2022/03/15 10:14:05;;;;;;;23.83;15.65;;;10.80;58.40;;;;;;5019735;28;20037;-73
2022/03/15 10:16:35;;;;;;;21.98;13.65;;;10.80;58.90;;;;;;5010006;28;20053;-70
2022/03/15 10:19:04;;;;;;;20.77;14.50;;;10.90;57.70;;;;;;5018712;28;20050;-75
2022/03/15 10:21:50;;;;;;;22.90;14.10;;;11.10;57.80;;;;;;5011785;28;20061;-73
2022/03/15 10:24:29;;;;;;;22.73;14.00;;;11.10;56.80;;;;;;5011415;28;20042;-71
2022/03/15 10:27:00;;;;;;;21.73;13.30;;;11.20;56.60;;;;;;5011750;28;20050;-74
2022/03/15 10:29:30;;;;;;;22.70;15.18;;;11.30;56.80;;;;;;4986883;28;20046;-76
2022/03/15 10:31:58;;;;;;;23.55;14.88;;;11.30;57.10;;;;;;4994399;28;20052;-74
2022/03/15 10:34:28;;;;;;;20.77;13.93;;;11.90;56.90;;;;;;4991374;28;20474;-72
2022/03/15 10:36:56;;;;;;;20.90;15.00;;;12.00;56.40;;;;;;4991980;28;20046;-75
2022/03/15 10:39:25;;;;;;;20.48;13.63;;;12.20;56.10;;;;;;4992148;28;20030;-83
2022/03/15 10:42:00;;;;;;;43.25;24.77;;;12.50;58.30;;;;;;4995480;28;20535;-77
2022/03/15 10:44:39;;;;;;;39.67;25.38;;;13.40;59.60;;;;;;5012079;28;20042;-76
2022/03/15 10:47:13;;;;;;;29.95;17.83;;;13.70;57.80;;;;;;4993204;28;20692;-72
2022/03/15 10:49:55;;;;;;;20.02;13.30;;;13.70;54.60;;;;;;4991882;28;20060;-78
2022/03/15 10:52:34;;;;;;;23.73;13.82;;;13.50;53.20;;;;;;4991644;28;20042;-71
2022/03/15 10:55:24;;;;;;;17.60;13.50;;;12.70;54.20;;;;;;4991308;28;20046;-73
2022/03/15 10:57:53;;;;;;;19.92;12.65;;;12.70;55.30;;;;;;4992156;28;20062;-78
2022/03/15 11:00:22;;;;;;;19.83;13.30;;;13.20;53.50;;;;;;5009059;28;20036;-71
2022/03/15 11:02:51;;;;;;;19.30;12.32;;;13.30;54.00;;;;;;4993082;28;20060;-75
2022/03/15 11:05:29;;;;;;;19.80;11.23;;;13.40;53.00;;;;;;4993296;28;20100;-75
2022/03/15 11:07:58;;;;;;;15.73;10.93;;;13.50;52.10;;;;;;5010998;28;20041;-70
2022/03/15 11:10:26;;;;;;;16.80;10.68;;;13.60;51.40;;;;;;5010399;28;20062;-74
2022/03/15 11:12:59;;;;;;;16.88;11.68;;;13.70;51.70;;;;;;5011172;28;20038;-72
2022/03/15 11:15:30;;;;;;;15.93;11.13;;;14.00;50.80;;;;;;5010531;28;20064;-71
2022/03/15 11:18:08;;;;;;;15.15;10.52;;;14.10;50.40;;;;;;5014652;28;20429;-74
2022/03/15 11:20:38;;;;;;;14.68;10.18;;;14.10;48.30;;;;;;5030785;28;20401;-72
2022/03/15 11:23:11;;;;;;;14.25;9.55;;;14.20;48.80;;;;;;5031026;28;20042;-73
2022/03/15 11:25:45;;;;;;;15.13;9.23;;;14.40;49.10;;;;;;5029845;28;20045;-72
2022/03/15 11:28:34;;;;;;;14.73;9.02;;;14.30;47.70;;;;;;5030459;28;20758;-72
2022/03/15 11:31:01;;;;;;;14.27;8.93;;;14.40;47.20;;;;;;5034336;28;20064;-73
2022/03/15 11:33:34;;;;;;;13.32;8.75;;;14.60;46.80;;;;;;5034640;28;20037;-78
2022/03/15 11:36:03;;;;;;;11.80;7.63;;;15.10;47.30;;;;;;5032775;28;20238;-72
2022/03/15 11:38:33;;;;;;;9.15;6.75;;;15.00;45.20;;;;;;5014931;28;20060;-74
2022/03/15 11:41:00;;;;;;;9.57;6.60;;;14.60;45.00;;;;;;5032400;28;20049;-74
2022/03/15 11:44:00;;;;;;;10.90;6.65;;;15.10;44.60;;;;;;5032474;28;20124;-72
2022/03/15 11:46:31;;;;;;;9.32;6.22;;;15.50;44.10;;;;;;5022344;28;20053;-72
2022/03/15 11:49:01;;;;;;;8.35;5.70;;;15.60;42.00;;;;;;5032520;28;20052;-71
2022/03/15 11:51:40;;;;;;;10.57;6.97;;;15.90;41.40;;;;;;5033494;28;20050;-72
2022/03/15 11:54:30;;;;;;;11.68;8.25;;;16.00;41.90;;;;;;5034456;28;20040;-73
2022/03/15 11:57:03;;;;;;;11.60;8.13;;;16.20;42.80;;;;;;5016903;28;20041;-73
2022/03/15 11:59:47;;;;;;;14.77;7.97;;;16.30;42.70;;;;;;5034100;28;20073;-72
2022/03/15 12:02:26;;;;;;;14.98;7.38;;;16.60;42.70;;;;;;5034044;28;20079;-70
2022/03/15 12:04:56;;;;;;;9.48;6.60;;;16.50;43.10;;;;;;5033079;28;20409;-72
2022/03/15 12:07:47;;;;;;;11.50;6.85;;;17.40;42.70;;;;;;5033933;28;20416;-71
2022/03/15 12:10:28;;;;;;;11.50;7.10;;;17.40;41.90;;;;;;5033184;28;20041;-71
2022/03/15 12:13:16;;;;;;;9.38;6.38;;;16.90;41.50;;;;;;5022658;28;20482;-72
2022/03/15 12:15:48;;;;;;;11.57;7.10;;;17.40;41.50;;;;;;5009047;28;20566;-72
2022/03/15 12:21:06;;;;;;;10.43;6.60;;;17.40;40.90;;;;;;5033674;28;20400;-74
2022/03/15 12:23:46;;;;;;;11.57;7.00;;;17.40;40.90;;;;;;5016503;28;20049;-71
2022/03/15 12:26:22;;;;;;;12.90;7.32;;;17.90;40.90;;;;;;5033591;28;20044;-72
2022/03/15 12:29:02;;;;;;;14.07;6.78;;;18.10;40.00;;;;;;5033949;28;20041;-70
2022/03/15 12:31:43;;;;;;;10.98;7.60;;;18.20;40.00;;;;;;5033165;28;20123;-73
2022/03/15 12:34:15;;;;;;;12.40;7.38;;;18.60;38.90;;;;;;5033846;28;20085;-71
2022/03/15 12:36:58;;;;;;;12.55;7.60;;;19.10;39.00;;;;;;5032921;28;20060;-73
2022/03/15 12:39:29;;;;;;;12.32;7.85;;;18.50;39.10;;;;;;5033529;28;20048;-73
2022/03/15 12:42:15;;;;;;;64.00;44.15;;;19.00;38.60;;;;;;5033366;28;20064;-74
2022/03/15 12:45:14;;;;;;;61.08;41.25;;;19.80;38.60;;;;;;5033952;28;20049;-78
2022/03/15 12:47:47;;;;;;;14.40;10.70;;;20.80;38.40;;;;;;4984565;28;20053;-71
2022/03/15 12:50:15;;;;;;;16.17;10.88;;;21.30;38.70;;;;;;5013731;28;20060;-71
2022/03/15 12:52:59;;;;;;;13.00;7.82;;;21.00;37.60;;;;;;5012597;28;20046;-70